sensor_id;sensor_type;location;lat;lon;timestamp;P1;durP1;ratioP1;P2;durP2;ratioP2
14874;SDS011;7529;48.170;17.138;2022-08-25T00:04:12;63.78;;;60.10;;
14874;SDS011;7529;48.170;17.138;2022-08-25T00:08:25;43.92;;;40.92;;
14874;SDS011;7529;48.170;17.138;2022-08-25T00:12:37;45.95;;;43.13;;
14874;SDS011;7529;48.170;17.138;2022-08-25T00:16:49;48.10;;;45.38;;
14874;SDS011;7529;48.170;17.138;2022-08-25T00:21:01;42.95;;;40.45;;
14874;SDS011;7529;48.170;17.138;2022-08-25T00:25:14;38.83;;;36.63;;
14874;SDS011;7529;48.170;17.138;2022-08-25T00:29:26;47.22;;;44.45;;
14874;SDS011;7529;48.170;17.138;2022-08-25T00:33:39;45.45;;;42.60;;
14874;SDS011;7529;48.170;17.138;2022-08-25T00:37:51;41.10;;;38.72;;
14874;SDS011;7529;48.170;17.138;2022-08-25T00:42:03;145.73;;;138.90;;
14874;SDS011;7529;48.170;17.138;2022-08-25T00:46:23;156.20;;;148.70;;
14874;SDS011;7529;48.170;17.138;2022-08-25T00:50:41;35.17;;;33.08;;
14874;SDS011;7529;48.170;17.138;2022-08-25T00:59:06;38.88;;;36.65;;
14874;SDS011;7529;48.170;17.138;2022-08-25T01:03:18;35.28;;;33.47;;
14874;SDS011;7529;48.170;17.138;2022-08-25T01:07:31;38.90;;;36.65;;
14874;SDS011;7529;48.170;17.138;2022-08-25T01:11:43;37.80;;;35.88;;
14874;SDS011;7529;48.170;17.138;2022-08-25T01:15:56;43.22;;;40.97;;
14874;SDS011;7529;48.170;17.138;2022-08-25T01:20:08;42.80;;;40.55;;
14874;SDS011;7529;48.170;17.138;2022-08-25T01:24:27;45.78;;;43.47;;
14874;SDS011;7529;48.170;17.138;2022-08-25T01:29:06;36.05;;;33.95;;
14874;SDS011;7529;48.170;17.138;2022-08-25T01:33:31;37.28;;;35.20;;
14874;SDS011;7529;48.170;17.138;2022-08-25T01:37:43;35.17;;;33.25;;
14874;SDS011;7529;48.170;17.138;2022-08-25T01:42:07;34.88;;;32.17;;
14874;SDS011;7529;48.170;17.138;2022-08-25T01:46:23;37.25;;;35.38;;
14874;SDS011;7529;48.170;17.138;2022-08-25T01:50:36;40.55;;;38.35;;
14874;SDS011;7529;48.170;17.138;2022-08-25T01:54:48;35.85;;;34.05;;
14874;SDS011;7529;48.170;17.138;2022-08-25T01:59:00;25.08;;;23.58;;
14874;SDS011;7529;48.170;17.138;2022-08-25T02:03:12;25.20;;;23.60;;
14874;SDS011;7529;48.170;17.138;2022-08-25T02:07:24;25.02;;;23.58;;
14874;SDS011;7529;48.170;17.138;2022-08-25T02:11:37;24.15;;;22.70;;
14874;SDS011;7529;48.170;17.138;2022-08-25T02:15:52;21.92;;;20.63;;
14874;SDS011;7529;48.170;17.138;2022-08-25T02:20:06;24.63;;;23.02;;
14874;SDS011;7529;48.170;17.138;2022-08-25T02:24:19;19.08;;;17.98;;
14874;SDS011;7529;48.170;17.138;2022-08-25T02:28:31;20.65;;;19.45;;
14874;SDS011;7529;48.170;17.138;2022-08-25T02:32:43;20.55;;;19.25;;
14874;SDS011;7529;48.170;17.138;2022-08-25T02:36:55;21.60;;;20.30;;
14874;SDS011;7529;48.170;17.138;2022-08-25T02:41:08;21.83;;;20.58;;
14874;SDS011;7529;48.170;17.138;2022-08-25T02:45:22;20.63;;;19.27;;
14874;SDS011;7529;48.170;17.138;2022-08-25T02:49:34;19.65;;;18.52;;
14874;SDS011;7529;48.170;17.138;2022-08-25T02:53:45;21.15;;;19.92;;
14874;SDS011;7529;48.170;17.138;2022-08-25T02:57:58;19.42;;;18.30;;
14874;SDS011;7529;48.170;17.138;2022-08-25T03:02:09;20.10;;;18.90;;
14874;SDS011;7529;48.170;17.138;2022-08-25T03:06:21;21.00;;;19.70;;
14874;SDS011;7529;48.170;17.138;2022-08-25T03:10:33;20.05;;;18.60;;
14874;SDS011;7529;48.170;17.138;2022-08-25T03:14:46;21.40;;;20.08;;
14874;SDS011;7529;48.170;17.138;2022-08-25T03:18:59;20.80;;;19.50;;
14874;SDS011;7529;48.170;17.138;2022-08-25T03:23:11;42.50;;;39.03;;
14874;SDS011;7529;48.170;17.138;2022-08-25T03:27:23;21.92;;;20.35;;
14874;SDS011;7529;48.170;17.138;2022-08-25T03:31:35;22.25;;;20.02;;
14874;SDS011;7529;48.170;17.138;2022-08-25T03:35:47;19.35;;;18.15;;
14874;SDS011;7529;48.170;17.138;2022-08-25T03:40:00;20.42;;;19.20;;
14874;SDS011;7529;48.170;17.138;2022-08-25T03:44:16;26.55;;;24.52;;
14874;SDS011;7529;48.170;17.138;2022-08-25T03:48:28;19.38;;;18.17;;
14874;SDS011;7529;48.170;17.138;2022-08-25T03:52:40;22.77;;;21.27;;
14874;SDS011;7529;48.170;17.138;2022-08-25T03:56:52;20.00;;;18.45;;
14874;SDS011;7529;48.170;17.138;2022-08-25T04:01:04;16.58;;;15.48;;
14874;SDS011;7529;48.170;17.138;2022-08-25T04:05:16;17.00;;;15.73;;
14874;SDS011;7529;48.170;17.138;2022-08-25T04:09:29;16.13;;;14.82;;
14874;SDS011;7529;48.170;17.138;2022-08-25T04:13:42;17.35;;;16.02;;
14874;SDS011;7529;48.170;17.138;2022-08-25T04:17:56;16.83;;;15.52;;
14874;SDS011;7529;48.170;17.138;2022-08-25T04:22:09;16.45;;;15.00;;
14874;SDS011;7529;48.170;17.138;2022-08-25T04:26:23;18.00;;;16.45;;
14874;SDS011;7529;48.170;17.138;2022-08-25T04:30:43;18.58;;;17.17;;
14874;SDS011;7529;48.170;17.138;2022-08-25T04:34:54;16.52;;;15.32;;
14874;SDS011;7529;48.170;17.138;2022-08-25T04:39:06;19.42;;;17.83;;
14874;SDS011;7529;48.170;17.138;2022-08-25T04:43:18;21.08;;;19.75;;
14874;SDS011;7529;48.170;17.138;2022-08-25T04:47:30;19.05;;;17.75;;
14874;SDS011;7529;48.170;17.138;2022-08-25T04:51:45;20.23;;;18.83;;
14874;SDS011;7529;48.170;17.138;2022-08-25T04:55:57;20.20;;;17.98;;
14874;SDS011;7529;48.170;17.138;2022-08-25T05:00:09;22.90;;;20.83;;
14874;SDS011;7529;48.170;17.138;2022-08-25T05:04:22;24.88;;;21.73;;
14874;SDS011;7529;48.170;17.138;2022-08-25T05:08:34;25.42;;;23.80;;
14874;SDS011;7529;48.170;17.138;2022-08-25T05:12:46;28.10;;;26.30;;
14874;SDS011;7529;48.170;17.138;2022-08-25T05:16:58;29.05;;;26.73;;
14874;SDS011;7529;48.170;17.138;2022-08-25T05:21:18;29.40;;;26.90;;
14874;SDS011;7529;48.170;17.138;2022-08-25T05:25:32;23.70;;;22.00;;
14874;SDS011;7529;48.170;17.138;2022-08-25T05:29:44;58.28;;;54.97;;
14874;SDS011;7529;48.170;17.138;2022-08-25T05:33:55;27.35;;;25.00;;
14874;SDS011;7529;48.170;17.138;2022-08-25T05:38:08;53.35;;;48.75;;
14874;SDS011;7529;48.170;17.138;2022-08-25T05:42:20;62.40;;;56.85;;
14874;SDS011;7529;48.170;17.138;2022-08-25T05:46:33;44.63;;;41.20;;
14874;SDS011;7529;48.170;17.138;2022-08-25T05:50:55;36.75;;;33.40;;
14874;SDS011;7529;48.170;17.138;2022-08-25T05:55:08;34.40;;;32.03;;
14874;SDS011;7529;48.170;17.138;2022-08-25T05:59:20;41.47;;;39.00;;
14874;SDS011;7529;48.170;17.138;2022-08-25T06:03:32;42.88;;;39.55;;
14874;SDS011;7529;48.170;17.138;2022-08-25T06:07:45;40.75;;;38.25;;
14874;SDS011;7529;48.170;17.138;2022-08-25T06:11:57;42.10;;;39.60;;
14874;SDS011;7529;48.170;17.138;2022-08-25T06:16:09;57.60;;;53.22;;
14874;SDS011;7529;48.170;17.138;2022-08-25T06:20:22;74.45;;;70.15;;
14874;SDS011;7529;48.170;17.138;2022-08-25T06:24:36;103.47;;;96.63;;
14874;SDS011;7529;48.170;17.138;2022-08-25T06:28:48;102.32;;;97.18;;
14874;SDS011;7529;48.170;17.138;2022-08-25T06:33:00;117.32;;;111.43;;
14874;SDS011;7529;48.170;17.138;2022-08-25T06:37:13;121.60;;;115.25;;
14874;SDS011;7529;48.170;17.138;2022-08-25T06:41:24;114.68;;;109.38;;
14874;SDS011;7529;48.170;17.138;2022-08-25T06:45:37;126.28;;;119.97;;
14874;SDS011;7529;48.170;17.138;2022-08-25T06:49:49;107.57;;;102.13;;
14874;SDS011;7529;48.170;17.138;2022-08-25T06:54:01;90.95;;;86.55;;
14874;SDS011;7529;48.170;17.138;2022-08-25T06:58:14;93.20;;;88.75;;
14874;SDS011;7529;48.170;17.138;2022-08-25T07:02:26;92.35;;;87.32;;
14874;SDS011;7529;48.170;17.138;2022-08-25T07:06:38;97.53;;;93.03;;
14874;SDS011;7529;48.170;17.138;2022-08-25T07:10:50;86.53;;;81.60;;
14874;SDS011;7529;48.170;17.138;2022-08-25T07:15:02;55.47;;;52.78;;
14874;SDS011;7529;48.170;17.138;2022-08-25T07:19:16;44.35;;;42.10;;
14874;SDS011;7529;48.170;17.138;2022-08-25T07:23:30;33.78;;;31.98;;
14874;SDS011;7529;48.170;17.138;2022-08-25T07:27:42;32.85;;;31.05;;
14874;SDS011;7529;48.170;17.138;2022-08-25T07:31:54;31.65;;;29.75;;
14874;SDS011;7529;48.170;17.138;2022-08-25T07:36:06;28.33;;;26.65;;
14874;SDS011;7529;48.170;17.138;2022-08-25T07:40:36;23.65;;;22.02;;
14874;SDS011;7529;48.170;17.138;2022-08-25T07:44:49;21.80;;;20.15;;
14874;SDS011;7529;48.170;17.138;2022-08-25T07:49:00;17.73;;;16.33;;
14874;SDS011;7529;48.170;17.138;2022-08-25T07:53:13;19.35;;;18.08;;
14874;SDS011;7529;48.170;17.138;2022-08-25T07:57:26;17.98;;;16.30;;
14874;SDS011;7529;48.170;17.138;2022-08-25T08:01:39;17.83;;;16.52;;
14874;SDS011;7529;48.170;17.138;2022-08-25T08:05:52;17.15;;;15.48;;
14874;SDS011;7529;48.170;17.138;2022-08-25T08:10:06;15.85;;;14.45;;
14874;SDS011;7529;48.170;17.138;2022-08-25T08:14:20;14.75;;;11.50;;
14874;SDS011;7529;48.170;17.138;2022-08-25T08:18:32;19.70;;;18.08;;
14874;SDS011;7529;48.170;17.138;2022-08-25T08:22:43;9.50;;;8.60;;
14874;SDS011;7529;48.170;17.138;2022-08-25T08:26:55;17.38;;;16.05;;
14874;SDS011;7529;48.170;17.138;2022-08-25T08:31:09;9.95;;;8.82;;
14874;SDS011;7529;48.170;17.138;2022-08-25T08:35:21;8.23;;;7.47;;
14874;SDS011;7529;48.170;17.138;2022-08-25T08:39:33;9.38;;;8.57;;
14874;SDS011;7529;48.170;17.138;2022-08-25T08:43:46;9.07;;;7.20;;
14874;SDS011;7529;48.170;17.138;2022-08-25T08:48:08;8.48;;;7.63;;
14874;SDS011;7529;48.170;17.138;2022-08-25T08:52:27;9.85;;;8.93;;
14874;SDS011;7529;48.170;17.138;2022-08-25T08:56:55;7.95;;;7.30;;
14874;SDS011;7529;48.170;17.138;2022-08-25T09:01:30;7.60;;;6.90;;
14874;SDS011;7529;48.170;17.138;2022-08-25T09:05:46;8.65;;;7.85;;
14874;SDS011;7529;48.170;17.138;2022-08-25T09:10:00;7.68;;;6.97;;
14874;SDS011;7529;48.170;17.138;2022-08-25T09:19:04;8.98;;;7.97;;
14874;SDS011;7529;48.170;17.138;2022-08-25T09:23:37;11.38;;;10.57;;
14874;SDS011;7529;48.170;17.138;2022-08-25T09:28:06;7.88;;;7.18;;
14874;SDS011;7529;48.170;17.138;2022-08-25T09:32:50;9.02;;;8.13;;
14874;SDS011;7529;48.170;17.138;2022-08-25T09:37:11;7.43;;;6.78;;
14874;SDS011;7529;48.170;17.138;2022-08-25T09:41:43;10.13;;;9.55;;
14874;SDS011;7529;48.170;17.138;2022-08-25T09:45:58;12.77;;;11.68;;
14874;SDS011;7529;48.170;17.138;2022-08-25T09:50:28;15.10;;;14.15;;
14874;SDS011;7529;48.170;17.138;2022-08-25T09:54:42;16.60;;;15.27;;
14874;SDS011;7529;48.170;17.138;2022-08-25T09:58:55;13.40;;;12.50;;
14874;SDS011;7529;48.170;17.138;2022-08-25T10:03:27;15.00;;;13.80;;
14874;SDS011;7529;48.170;17.138;2022-08-25T10:07:47;8.10;;;7.40;;
14874;SDS011;7529;48.170;17.138;2022-08-25T10:12:16;7.35;;;6.70;;
14874;SDS011;7529;48.170;17.138;2022-08-25T10:16:31;7.45;;;6.85;;
14874;SDS011;7529;48.170;17.138;2022-08-25T10:20:44;11.52;;;6.53;;
14874;SDS011;7529;48.170;17.138;2022-08-25T10:25:14;7.35;;;6.75;;
14874;SDS011;7529;48.170;17.138;2022-08-25T10:43:30;8.73;;;8.23;;
14874;SDS011;7529;48.170;17.138;2022-08-25T10:52:20;11.60;;;11.02;;
14874;SDS011;7529;48.170;17.138;2022-08-25T10:56:57;12.80;;;11.98;;
14874;SDS011;7529;48.170;17.138;2022-08-25T11:01:48;11.80;;;11.20;;
14874;SDS011;7529;48.170;17.138;2022-08-25T11:11:13;11.48;;;10.88;;
14874;SDS011;7529;48.170;17.138;2022-08-25T11:19:51;16.23;;;15.52;;
14874;SDS011;7529;48.170;17.138;2022-08-25T11:33:06;16.30;;;15.50;;
14874;SDS011;7529;48.170;17.138;2022-08-25T11:37:26;12.52;;;11.93;;
14874;SDS011;7529;48.170;17.138;2022-08-25T12:00:34;15.57;;;14.80;;
14874;SDS011;7529;48.170;17.138;2022-08-25T12:04:48;12.43;;;11.82;;
14874;SDS011;7529;48.170;17.138;2022-08-25T12:26:54;7.57;;;7.28;;
14874;SDS011;7529;48.170;17.138;2022-08-25T12:31:14;7.43;;;7.03;;
14874;SDS011;7529;48.170;17.138;2022-08-25T12:40:22;10.98;;;6.78;;
14874;SDS011;7529;48.170;17.138;2022-08-25T12:44:43;7.68;;;7.28;;
14874;SDS011;7529;48.170;17.138;2022-08-25T12:49:31;8.00;;;7.40;;
14874;SDS011;7529;48.170;17.138;2022-08-25T12:53:48;7.60;;;7.30;;
14874;SDS011;7529;48.170;17.138;2022-08-25T13:08:14;7.57;;;7.25;;
14874;SDS011;7529;48.170;17.138;2022-08-25T13:18:13;6.60;;;6.22;;
14874;SDS011;7529;48.170;17.138;2022-08-25T13:22:32;7.03;;;6.55;;
14874;SDS011;7529;48.170;17.138;2022-08-25T13:26:44;5.68;;;5.38;;
14874;SDS011;7529;48.170;17.138;2022-08-25T13:31:07;5.90;;;5.50;;
14874;SDS011;7529;48.170;17.138;2022-08-25T13:35:27;5.32;;;5.03;;
14874;SDS011;7529;48.170;17.138;2022-08-25T13:39:42;6.20;;;5.80;;
14874;SDS011;7529;48.170;17.138;2022-08-25T13:43:54;5.38;;;5.07;;
14874;SDS011;7529;48.170;17.138;2022-08-25T13:48:07;5.40;;;5.20;;
14874;SDS011;7529;48.170;17.138;2022-08-25T13:52:25;4.82;;;4.63;;
14874;SDS011;7529;48.170;17.138;2022-08-25T13:56:39;5.72;;;5.43;;
14874;SDS011;7529;48.170;17.138;2022-08-25T14:01:27;6.40;;;6.00;;
14874;SDS011;7529;48.170;17.138;2022-08-25T14:05:40;7.20;;;6.70;;
14874;SDS011;7529;48.170;17.138;2022-08-25T14:09:59;5.07;;;4.78;;
14874;SDS011;7529;48.170;17.138;2022-08-25T14:14:45;5.65;;;5.22;;
14874;SDS011;7529;48.170;17.138;2022-08-25T14:19:48;5.63;;;5.22;;
14874;SDS011;7529;48.170;17.138;2022-08-25T14:24:00;5.43;;;5.13;;
14874;SDS011;7529;48.170;17.138;2022-08-25T14:28:14;5.43;;;5.03;;
14874;SDS011;7529;48.170;17.138;2022-08-25T14:32:28;5.28;;;5.00;;
14874;SDS011;7529;48.170;17.138;2022-08-25T14:36:40;5.75;;;5.20;;
14874;SDS011;7529;48.170;17.138;2022-08-25T14:40:52;7.80;;;7.20;;
14874;SDS011;7529;48.170;17.138;2022-08-25T14:45:05;5.15;;;4.85;;
14874;SDS011;7529;48.170;17.138;2022-08-25T14:49:19;6.18;;;5.72;;
14874;SDS011;7529;48.170;17.138;2022-08-25T14:53:33;5.35;;;5.03;;
14874;SDS011;7529;48.170;17.138;2022-08-25T14:57:45;5.93;;;5.43;;
14874;SDS011;7529;48.170;17.138;2022-08-25T15:02:01;5.20;;;4.90;;
14874;SDS011;7529;48.170;17.138;2022-08-25T15:06:23;7.13;;;6.72;;
14874;SDS011;7529;48.170;17.138;2022-08-25T15:10:35;7.25;;;5.30;;
14874;SDS011;7529;48.170;17.138;2022-08-25T15:14:47;5.38;;;5.07;;
14874;SDS011;7529;48.170;17.138;2022-08-25T15:18:59;5.03;;;4.72;;
14874;SDS011;7529;48.170;17.138;2022-08-25T15:23:11;5.00;;;4.80;;
14874;SDS011;7529;48.170;17.138;2022-08-25T15:27:23;5.75;;;5.35;;
14874;SDS011;7529;48.170;17.138;2022-08-25T15:31:35;5.65;;;5.35;;
14874;SDS011;7529;48.170;17.138;2022-08-25T15:35:49;4.47;;;4.20;;
14874;SDS011;7529;48.170;17.138;2022-08-25T15:40:02;4.45;;;4.25;;
14874;SDS011;7529;48.170;17.138;2022-08-25T15:44:15;5.00;;;4.70;;
14874;SDS011;7529;48.170;17.138;2022-08-25T15:48:27;6.07;;;5.47;;
14874;SDS011;7529;48.170;17.138;2022-08-25T15:52:39;5.10;;;4.80;;
14874;SDS011;7529;48.170;17.138;2022-08-25T15:56:52;4.80;;;4.50;;
14874;SDS011;7529;48.170;17.138;2022-08-25T16:01:06;6.07;;;5.68;;
14874;SDS011;7529;48.170;17.138;2022-08-25T16:05:21;5.60;;;5.18;;
14874;SDS011;7529;48.170;17.138;2022-08-25T16:09:33;5.85;;;5.55;;
14874;SDS011;7529;48.170;17.138;2022-08-25T16:13:45;6.60;;;6.20;;
14874;SDS011;7529;48.170;17.138;2022-08-25T16:17:58;8.65;;;8.18;;
14874;SDS011;7529;48.170;17.138;2022-08-25T16:22:10;7.95;;;7.55;;
14874;SDS011;7529;48.170;17.138;2022-08-25T16:26:22;10.38;;;9.68;;
14874;SDS011;7529;48.170;17.138;2022-08-25T16:30:34;16.48;;;7.85;;
14874;SDS011;7529;48.170;17.138;2022-08-25T16:34:49;7.60;;;7.20;;
14874;SDS011;7529;48.170;17.138;2022-08-25T16:39:01;7.00;;;6.30;;
14874;SDS011;7529;48.170;17.138;2022-08-25T16:43:14;6.78;;;6.38;;
14874;SDS011;7529;48.170;17.138;2022-08-25T16:47:27;6.75;;;6.35;;
14874;SDS011;7529;48.170;17.138;2022-08-25T16:51:39;7.13;;;6.65;;
14874;SDS011;7529;48.170;17.138;2022-08-25T16:56:02;16.58;;;15.77;;
14874;SDS011;7529;48.170;17.138;2022-08-25T17:00:18;43.00;;;41.00;;
14874;SDS011;7529;48.170;17.138;2022-08-25T17:04:32;50.83;;;48.50;;
14874;SDS011;7529;48.170;17.138;2022-08-25T17:08:44;44.42;;;42.33;;
14874;SDS011;7529;48.170;17.138;2022-08-25T17:13:00;43.30;;;41.30;;
14874;SDS011;7529;48.170;17.138;2022-08-25T17:17:12;217.32;;;204.50;;
14874;SDS011;7529;48.170;17.138;2022-08-25T17:21:24;54.75;;;52.03;;
14874;SDS011;7529;48.170;17.138;2022-08-25T17:25:38;150.48;;;143.20;;
14874;SDS011;7529;48.170;17.138;2022-08-25T17:29:51;199.80;;;189.60;;
14874;SDS011;7529;48.170;17.138;2022-08-25T17:34:03;211.48;;;200.02;;
14874;SDS011;7529;48.170;17.138;2022-08-25T17:38:17;271.52;;;255.05;;
14874;SDS011;7529;48.170;17.138;2022-08-25T17:42:33;142.43;;;134.95;;
14874;SDS011;7529;48.170;17.138;2022-08-25T17:46:45;130.93;;;124.40;;
14874;SDS011;7529;48.170;17.138;2022-08-25T17:50:57;147.25;;;139.73;;
14874;SDS011;7529;48.170;17.138;2022-08-25T17:55:09;148.75;;;141.02;;
14874;SDS011;7529;48.170;17.138;2022-08-25T17:59:21;200.30;;;189.45;;
14874;SDS011;7529;48.170;17.138;2022-08-25T18:03:33;160.75;;;151.85;;
14874;SDS011;7529;48.170;17.138;2022-08-25T18:07:46;147.45;;;139.55;;
14874;SDS011;7529;48.170;17.138;2022-08-25T18:11:57;171.45;;;162.25;;
14874;SDS011;7529;48.170;17.138;2022-08-25T18:16:10;180.35;;;170.00;;
14874;SDS011;7529;48.170;17.138;2022-08-25T18:20:22;157.23;;;149.10;;
14874;SDS011;7529;48.170;17.138;2022-08-25T18:24:36;162.20;;;153.48;;
14874;SDS011;7529;48.170;17.138;2022-08-25T18:28:47;178.30;;;167.85;;
14874;SDS011;7529;48.170;17.138;2022-08-25T18:33:00;135.48;;;128.40;;
14874;SDS011;7529;48.170;17.138;2022-08-25T18:37:11;132.20;;;125.10;;
14874;SDS011;7529;48.170;17.138;2022-08-25T18:41:43;128.15;;;121.22;;
14874;SDS011;7529;48.170;17.138;2022-08-25T18:45:54;107.78;;;102.53;;
14874;SDS011;7529;48.170;17.138;2022-08-25T18:50:09;111.65;;;105.88;;
14874;SDS011;7529;48.170;17.138;2022-08-25T18:54:20;118.28;;;112.25;;
14874;SDS011;7529;48.170;17.138;2022-08-25T18:58:33;366.38;;;339.42;;
14874;SDS011;7529;48.170;17.138;2022-08-25T19:02:45;121.05;;;115.32;;
14874;SDS011;7529;48.170;17.138;2022-08-25T19:06:59;104.22;;;98.95;;
14874;SDS011;7529;48.170;17.138;2022-08-25T19:11:11;112.93;;;107.35;;
14874;SDS011;7529;48.170;17.138;2022-08-25T19:15:23;85.20;;;81.32;;
14874;SDS011;7529;48.170;17.138;2022-08-25T19:19:36;87.32;;;83.20;;
14874;SDS011;7529;48.170;17.138;2022-08-25T19:23:48;86.47;;;82.38;;
14874;SDS011;7529;48.170;17.138;2022-08-25T19:28:01;96.22;;;91.40;;
14874;SDS011;7529;48.170;17.138;2022-08-25T19:32:15;95.57;;;90.85;;
14874;SDS011;7529;48.170;17.138;2022-08-25T19:36:27;109.00;;;103.63;;
14874;SDS011;7529;48.170;17.138;2022-08-25T19:40:40;446.40;;;414.00;;
14874;SDS011;7529;48.170;17.138;2022-08-25T19:44:53;48.70;;;46.28;;
14874;SDS011;7529;48.170;17.138;2022-08-25T19:49:06;33.13;;;31.23;;
14874;SDS011;7529;48.170;17.138;2022-08-25T19:53:20;40.53;;;38.50;;
14874;SDS011;7529;48.170;17.138;2022-08-25T19:57:33;32.50;;;30.80;;
14874;SDS011;7529;48.170;17.138;2022-08-25T20:01:45;28.23;;;26.83;;
14874;SDS011;7529;48.170;17.138;2022-08-25T20:05:58;32.15;;;30.52;;
14874;SDS011;7529;48.170;17.138;2022-08-25T20:10:11;37.13;;;34.95;;
14874;SDS011;7529;48.170;17.138;2022-08-25T20:14:23;45.80;;;42.55;;
14874;SDS011;7529;48.170;17.138;2022-08-25T20:18:35;43.28;;;40.63;;
14874;SDS011;7529;48.170;17.138;2022-08-25T20:22:47;32.50;;;30.83;;
14874;SDS011;7529;48.170;17.138;2022-08-25T20:26:59;35.22;;;33.55;;
14874;SDS011;7529;48.170;17.138;2022-08-25T20:31:11;32.72;;;30.95;;
14874;SDS011;7529;48.170;17.138;2022-08-25T20:35:24;30.85;;;29.38;;
14874;SDS011;7529;48.170;17.138;2022-08-25T20:39:37;42.05;;;39.90;;
14874;SDS011;7529;48.170;17.138;2022-08-25T20:43:49;44.45;;;42.13;;
14874;SDS011;7529;48.170;17.138;2022-08-25T20:48:02;50.35;;;48.00;;
14874;SDS011;7529;48.170;17.138;2022-08-25T20:52:14;57.13;;;54.53;;
14874;SDS011;7529;48.170;17.138;2022-08-25T20:56:26;45.60;;;43.35;;
14874;SDS011;7529;48.170;17.138;2022-08-25T21:00:42;30.38;;;28.77;;
14874;SDS011;7529;48.170;17.138;2022-08-25T21:04:57;30.65;;;28.83;;
14874;SDS011;7529;48.170;17.138;2022-08-25T21:09:11;23.48;;;22.30;;
14874;SDS011;7529;48.170;17.138;2022-08-25T21:13:24;26.65;;;25.23;;
14874;SDS011;7529;48.170;17.138;2022-08-25T21:17:36;26.52;;;24.75;;
14874;SDS011;7529;48.170;17.138;2022-08-25T21:21:49;18.05;;;17.05;;
14874;SDS011;7529;48.170;17.138;2022-08-25T21:26:01;22.15;;;20.65;;
14874;SDS011;7529;48.170;17.138;2022-08-25T21:30:13;25.63;;;24.15;;
14874;SDS011;7529;48.170;17.138;2022-08-25T21:34:25;16.13;;;15.20;;
14874;SDS011;7529;48.170;17.138;2022-08-25T21:38:37;17.02;;;16.02;;
14874;SDS011;7529;48.170;17.138;2022-08-25T21:42:50;14.27;;;13.45;;
14874;SDS011;7529;48.170;17.138;2022-08-25T21:47:02;15.07;;;11.48;;
14874;SDS011;7529;48.170;17.138;2022-08-25T21:51:15;10.57;;;9.77;;
14874;SDS011;7529;48.170;17.138;2022-08-25T21:55:38;11.27;;;10.48;;
14874;SDS011;7529;48.170;17.138;2022-08-25T21:59:51;93.93;;;88.78;;
14874;SDS011;7529;48.170;17.138;2022-08-25T22:04:06;13.48;;;12.68;;
14874;SDS011;7529;48.170;17.138;2022-08-25T22:08:19;10.10;;;9.50;;
14874;SDS011;7529;48.170;17.138;2022-08-25T22:12:31;11.65;;;10.88;;
14874;SDS011;7529;48.170;17.138;2022-08-25T22:16:43;11.73;;;10.90;;
14874;SDS011;7529;48.170;17.138;2022-08-25T22:20:55;10.75;;;10.15;;
14874;SDS011;7529;48.170;17.138;2022-08-25T22:25:07;11.13;;;10.18;;
14874;SDS011;7529;48.170;17.138;2022-08-25T22:29:19;11.52;;;9.98;;
14874;SDS011;7529;48.170;17.138;2022-08-25T22:33:31;15.45;;;14.25;;
14874;SDS011;7529;48.170;17.138;2022-08-25T22:37:43;13.30;;;12.50;;
14874;SDS011;7529;48.170;17.138;2022-08-25T22:41:57;13.77;;;12.98;;
14874;SDS011;7529;48.170;17.138;2022-08-25T22:46:09;12.95;;;12.05;;
14874;SDS011;7529;48.170;17.138;2022-08-25T22:50:21;12.02;;;11.32;;
14874;SDS011;7529;48.170;17.138;2022-08-25T22:54:34;12.85;;;11.88;;
14874;SDS011;7529;48.170;17.138;2022-08-25T22:58:46;13.00;;;12.15;;
14874;SDS011;7529;48.170;17.138;2022-08-25T23:02:58;14.60;;;13.70;;
14874;SDS011;7529;48.170;17.138;2022-08-25T23:07:10;13.23;;;12.32;;
14874;SDS011;7529;48.170;17.138;2022-08-25T23:11:22;12.55;;;11.85;;
14874;SDS011;7529;48.170;17.138;2022-08-25T23:15:34;12.15;;;11.27;;
14874;SDS011;7529;48.170;17.138;2022-08-25T23:19:47;13.02;;;11.80;;
14874;SDS011;7529;48.170;17.138;2022-08-25T23:24:00;13.73;;;12.85;;
14874;SDS011;7529;48.170;17.138;2022-08-25T23:28:12;13.00;;;12.20;;
14874;SDS011;7529;48.170;17.138;2022-08-25T23:32:23;12.00;;;10.88;;
14874;SDS011;7529;48.170;17.138;2022-08-25T23:36:37;10.93;;;10.13;;
14874;SDS011;7529;48.170;17.138;2022-08-25T23:40:49;14.68;;;13.52;;
14874;SDS011;7529;48.170;17.138;2022-08-25T23:45:01;12.25;;;11.55;;
14874;SDS011;7529;48.170;17.138;2022-08-25T23:49:14;13.38;;;12.35;;
14874;SDS011;7529;48.170;17.138;2022-08-25T23:53:28;12.77;;;11.98;;
14874;SDS011;7529;48.170;17.138;2022-08-25T23:57:41;14.00;;;12.90;;
